sensor_id;sensor_type;location;lat;lon;timestamp;temperature;humidity
64855;DHT22;51321;50.428;8.378;2022-10-31T00:01:10;10.30;99.90
64855;DHT22;51321;50.428;8.378;2022-10-31T00:03:33;10.20;99.90
64855;DHT22;51321;50.428;8.378;2022-10-31T00:05:55;10.20;99.90
64855;DHT22;51321;50.428;8.378;2022-10-31T00:08:17;10.30;99.90
64855;DHT22;51321;50.428;8.378;2022-10-31T00:10:39;10.30;99.90
64855;DHT22;51321;50.428;8.378;2022-10-31T00:13:03;10.30;99.90
64855;DHT22;51321;50.428;8.378;2022-10-31T00:15:25;10.30;99.90
64855;DHT22;51321;50.428;8.378;2022-10-31T00:17:47;10.20;99.90
64855;DHT22;51321;50.428;8.378;2022-10-31T00:20:09;10.10;99.90
64855;DHT22;51321;50.428;8.378;2022-10-31T00:22:31;10.00;99.90
64855;DHT22;51321;50.428;8.378;2022-10-31T00:24:54;9.90;99.90
64855;DHT22;51321;50.428;8.378;2022-10-31T00:27:15;9.90;99.90
64855;DHT22;51321;50.428;8.378;2022-10-31T00:29:39;9.80;99.90
64855;DHT22;51321;50.428;8.378;2022-10-31T00:32:01;9.80;99.90
64855;DHT22;51321;50.428;8.378;2022-10-31T00:34:24;9.80;99.90
64855;DHT22;51321;50.428;8.378;2022-10-31T00:36:46;9.80;99.90
64855;DHT22;51321;50.428;8.378;2022-10-31T00:39:08;9.80;99.90
64855;DHT22;51321;50.428;8.378;2022-10-31T00:41:30;9.80;99.90
64855;DHT22;51321;50.428;8.378;2022-10-31T00:43:52;9.90;99.90
64855;DHT22;51321;50.428;8.378;2022-10-31T00:46:16;9.80;99.90
64855;DHT22;51321;50.428;8.378;2022-10-31T00:48:38;9.80;99.90
64855;DHT22;51321;50.428;8.378;2022-10-31T00:51:00;9.90;99.90
64855;DHT22;51321;50.428;8.378;2022-10-31T00:53:22;10.00;99.90
64855;DHT22;51321;50.428;8.378;2022-10-31T00:55:44;10.00;99.90
64855;DHT22;51321;50.428;8.378;2022-10-31T00:58:06;10.00;99.90
64855;DHT22;51321;50.428;8.378;2022-10-31T01:00:29;10.00;99.90
64855;DHT22;51321;50.428;8.378;2022-10-31T01:02:52;9.90;99.90
64855;DHT22;51321;50.428;8.378;2022-10-31T01:05:14;9.90;99.90
64855;DHT22;51321;50.428;8.378;2022-10-31T01:07:38;9.90;99.90
64855;DHT22;51321;50.428;8.378;2022-10-31T01:10:03;9.90;99.90
64855;DHT22;51321;50.428;8.378;2022-10-31T01:12:26;9.90;99.90
64855;DHT22;51321;50.428;8.378;2022-10-31T01:14:48;9.90;99.90
64855;DHT22;51321;50.428;8.378;2022-10-31T01:17:12;9.90;99.90
64855;DHT22;51321;50.428;8.378;2022-10-31T01:19:36;9.90;99.90
64855;DHT22;51321;50.428;8.378;2022-10-31T01:21:58;9.90;99.90
64855;DHT22;51321;50.428;8.378;2022-10-31T01:24:23;9.90;99.90
64855;DHT22;51321;50.428;8.378;2022-10-31T01:26:46;9.90;99.90
64855;DHT22;51321;50.428;8.378;2022-10-31T01:29:08;9.90;99.90
64855;DHT22;51321;50.428;8.378;2022-10-31T01:31:32;9.90;99.90
64855;DHT22;51321;50.428;8.378;2022-10-31T01:33:55;9.80;99.90
64855;DHT22;51321;50.428;8.378;2022-10-31T01:36:21;9.90;99.90
64855;DHT22;51321;50.428;8.378;2022-10-31T01:38:45;9.80;99.90
64855;DHT22;51321;50.428;8.378;2022-10-31T01:41:10;9.70;99.90
64855;DHT22;51321;50.428;8.378;2022-10-31T01:43:43;9.70;99.90
64855;DHT22;51321;50.428;8.378;2022-10-31T01:46:05;9.70;99.90
64855;DHT22;51321;50.428;8.378;2022-10-31T01:48:28;9.70;99.90
64855;DHT22;51321;50.428;8.378;2022-10-31T01:50:53;9.80;99.90
64855;DHT22;51321;50.428;8.378;2022-10-31T01:53:17;9.80;99.90
64855;DHT22;51321;50.428;8.378;2022-10-31T01:55:42;9.70;99.90
64855;DHT22;51321;50.428;8.378;2022-10-31T01:58:12;9.80;99.90
64855;DHT22;51321;50.428;8.378;2022-10-31T02:00:34;9.70;99.90
64855;DHT22;51321;50.428;8.378;2022-10-31T02:02:57;9.80;99.90
64855;DHT22;51321;50.428;8.378;2022-10-31T02:05:23;9.80;99.90
64855;DHT22;51321;50.428;8.378;2022-10-31T02:07:53;9.80;99.90
64855;DHT22;51321;50.428;8.378;2022-10-31T02:10:23;10.00;99.90
64855;DHT22;51321;50.428;8.378;2022-10-31T02:12:48;10.00;99.90
64855;DHT22;51321;50.428;8.378;2022-10-31T02:15:10;10.00;99.90
64855;DHT22;51321;50.428;8.378;2022-10-31T02:17:36;10.00;99.90
64855;DHT22;51321;50.428;8.378;2022-10-31T02:20:06;9.90;99.90
64855;DHT22;51321;50.428;8.378;2022-10-31T02:22:40;9.90;99.90
64855;DHT22;51321;50.428;8.378;2022-10-31T02:25:14;9.80;99.90
64855;DHT22;51321;50.428;8.378;2022-10-31T02:27:57;9.80;99.90
64855;DHT22;51321;50.428;8.378;2022-10-31T02:30:25;9.60;99.90
64855;DHT22;51321;50.428;8.378;2022-10-31T02:33:13;9.60;99.90
64855;DHT22;51321;50.428;8.378;2022-10-31T02:35:47;9.60;99.90
64855;DHT22;51321;50.428;8.378;2022-10-31T02:38:19;9.60;99.90
64855;DHT22;51321;50.428;8.378;2022-10-31T02:40:51;9.60;99.90
64855;DHT22;51321;50.428;8.378;2022-10-31T02:43:29;9.50;99.90
64855;DHT22;51321;50.428;8.378;2022-10-31T02:45:57;9.50;99.90
64855;DHT22;51321;50.428;8.378;2022-10-31T02:48:27;9.60;99.90
64855;DHT22;51321;50.428;8.378;2022-10-31T02:50:52;9.70;99.90
64855;DHT22;51321;50.428;8.378;2022-10-31T02:53:16;9.70;99.90
64855;DHT22;51321;50.428;8.378;2022-10-31T02:55:55;9.80;99.90
64855;DHT22;51321;50.428;8.378;2022-10-31T02:58:21;9.80;99.90
64855;DHT22;51321;50.428;8.378;2022-10-31T03:00:59;9.70;99.90
64855;DHT22;51321;50.428;8.378;2022-10-31T03:03:34;9.60;99.90
64855;DHT22;51321;50.428;8.378;2022-10-31T03:06:01;9.60;99.90
64855;DHT22;51321;50.428;8.378;2022-10-31T03:08:28;9.70;99.90
64855;DHT22;51321;50.428;8.378;2022-10-31T03:10:55;9.70;99.90
64855;DHT22;51321;50.428;8.378;2022-10-31T03:13:24;9.60;99.90
64855;DHT22;51321;50.428;8.378;2022-10-31T03:15:55;9.60;99.90
64855;DHT22;51321;50.428;8.378;2022-10-31T03:18:29;9.60;99.90
64855;DHT22;51321;50.428;8.378;2022-10-31T03:20:57;9.70;99.90
64855;DHT22;51321;50.428;8.378;2022-10-31T03:23:22;9.80;99.90
64855;DHT22;51321;50.428;8.378;2022-10-31T03:25:47;9.70;99.90
64855;DHT22;51321;50.428;8.378;2022-10-31T03:28:12;9.70;99.90
64855;DHT22;51321;50.428;8.378;2022-10-31T03:30:39;9.60;99.90
64855;DHT22;51321;50.428;8.378;2022-10-31T03:33:05;9.60;99.90
64855;DHT22;51321;50.428;8.378;2022-10-31T03:35:35;9.60;99.90
64855;DHT22;51321;50.428;8.378;2022-10-31T03:38:00;9.50;99.90
64855;DHT22;51321;50.428;8.378;2022-10-31T03:40:25;9.50;99.90
64855;DHT22;51321;50.428;8.378;2022-10-31T03:42:53;9.50;99.90
64855;DHT22;51321;50.428;8.378;2022-10-31T03:45:21;9.50;99.90
64855;DHT22;51321;50.428;8.378;2022-10-31T03:47:45;9.40;99.90
64855;DHT22;51321;50.428;8.378;2022-10-31T03:50:09;9.40;99.90
64855;DHT22;51321;50.428;8.378;2022-10-31T03:52:37;9.40;99.90
64855;DHT22;51321;50.428;8.378;2022-10-31T03:55:10;9.40;99.90
64855;DHT22;51321;50.428;8.378;2022-10-31T03:57:38;9.40;99.90
64855;DHT22;51321;50.428;8.378;2022-10-31T04:00:05;9.40;99.90
64855;DHT22;51321;50.428;8.378;2022-10-31T04:02:41;9.40;99.90
64855;DHT22;51321;50.428;8.378;2022-10-31T04:05:06;9.30;99.90
64855;DHT22;51321;50.428;8.378;2022-10-31T04:07:31;9.30;99.90
64855;DHT22;51321;50.428;8.378;2022-10-31T04:09:57;9.30;99.90
64855;DHT22;51321;50.428;8.378;2022-10-31T04:12:22;9.20;99.90
64855;DHT22;51321;50.428;8.378;2022-10-31T04:15:01;9.20;99.90
64855;DHT22;51321;50.428;8.378;2022-10-31T04:17:27;9.20;99.90
64855;DHT22;51321;50.428;8.378;2022-10-31T04:19:51;9.30;99.90
64855;DHT22;51321;50.428;8.378;2022-10-31T04:22:13;9.40;99.90
64855;DHT22;51321;50.428;8.378;2022-10-31T04:24:36;9.40;99.90
64855;DHT22;51321;50.428;8.378;2022-10-31T04:27:01;9.50;99.90
64855;DHT22;51321;50.428;8.378;2022-10-31T04:29:24;9.50;99.90
64855;DHT22;51321;50.428;8.378;2022-10-31T04:31:47;9.40;99.90
64855;DHT22;51321;50.428;8.378;2022-10-31T04:34:09;9.40;99.90
64855;DHT22;51321;50.428;8.378;2022-10-31T04:36:31;9.40;99.90
64855;DHT22;51321;50.428;8.378;2022-10-31T04:38:54;9.30;99.90
64855;DHT22;51321;50.428;8.378;2022-10-31T04:41:38;9.30;99.90
64855;DHT22;51321;50.428;8.378;2022-10-31T04:44:10;9.20;99.90
64855;DHT22;51321;50.428;8.378;2022-10-31T04:46:32;9.20;99.90
64855;DHT22;51321;50.428;8.378;2022-10-31T04:48:54;9.20;99.90
64855;DHT22;51321;50.428;8.378;2022-10-31T04:51:18;9.20;99.90
64855;DHT22;51321;50.428;8.378;2022-10-31T04:53:40;9.10;99.90
64855;DHT22;51321;50.428;8.378;2022-10-31T04:56:20;9.20;99.90
64855;DHT22;51321;50.428;8.378;2022-10-31T04:58:47;9.10;99.90
64855;DHT22;51321;50.428;8.378;2022-10-31T05:01:12;9.10;99.90
64855;DHT22;51321;50.428;8.378;2022-10-31T05:03:34;9.10;99.90
64855;DHT22;51321;50.428;8.378;2022-10-31T05:05:56;9.00;99.90
64855;DHT22;51321;50.428;8.378;2022-10-31T05:08:20;9.00;99.90
64855;DHT22;51321;50.428;8.378;2022-10-31T05:10:44;9.00;99.90
64855;DHT22;51321;50.428;8.378;2022-10-31T05:13:07;8.90;99.90
64855;DHT22;51321;50.428;8.378;2022-10-31T05:16:05;8.90;99.90
64855;DHT22;51321;50.428;8.378;2022-10-31T05:18:47;8.90;99.90
64855;DHT22;51321;50.428;8.378;2022-10-31T05:21:21;8.70;99.90
64855;DHT22;51321;50.428;8.378;2022-10-31T05:23:47;8.60;99.90
64855;DHT22;51321;50.428;8.378;2022-10-31T05:26:09;8.60;99.90
64855;DHT22;51321;50.428;8.378;2022-10-31T05:28:31;8.60;99.90
64855;DHT22;51321;50.428;8.378;2022-10-31T05:30:53;8.60;99.90
64855;DHT22;51321;50.428;8.378;2022-10-31T05:33:16;8.70;99.90
64855;DHT22;51321;50.428;8.378;2022-10-31T05:35:42;8.70;99.90
64855;DHT22;51321;50.428;8.378;2022-10-31T05:38:22;8.60;99.90
64855;DHT22;51321;50.428;8.378;2022-10-31T05:40:45;8.60;99.90
64855;DHT22;51321;50.428;8.378;2022-10-31T05:43:07;8.60;99.90
64855;DHT22;51321;50.428;8.378;2022-10-31T05:45:29;8.60;99.90
64855;DHT22;51321;50.428;8.378;2022-10-31T05:47:55;8.60;99.90
64855;DHT22;51321;50.428;8.378;2022-10-31T05:50:36;8.60;99.90
64855;DHT22;51321;50.428;8.378;2022-10-31T05:53:05;8.70;99.90
64855;DHT22;51321;50.428;8.378;2022-10-31T05:55:32;8.70;99.90
64855;DHT22;51321;50.428;8.378;2022-10-31T05:58:03;8.70;99.90
64855;DHT22;51321;50.428;8.378;2022-10-31T06:00:26;8.60;99.90
64855;DHT22;51321;50.428;8.378;2022-10-31T06:02:58;8.50;99.90
64855;DHT22;51321;50.428;8.378;2022-10-31T06:05:35;8.50;99.90
64855;DHT22;51321;50.428;8.378;2022-10-31T06:07:57;8.50;99.90
64855;DHT22;51321;50.428;8.378;2022-10-31T06:10:21;8.40;99.90
64855;DHT22;51321;50.428;8.378;2022-10-31T06:12:47;8.60;99.90
64855;DHT22;51321;50.428;8.378;2022-10-31T06:15:15;8.40;99.90
64855;DHT22;51321;50.428;8.378;2022-10-31T06:17:37;8.30;99.90
64855;DHT22;51321;50.428;8.378;2022-10-31T06:20:18;8.40;99.90
64855;DHT22;51321;50.428;8.378;2022-10-31T06:22:49;8.40;99.90
64855;DHT22;51321;50.428;8.378;2022-10-31T06:25:12;8.40;99.90
64855;DHT22;51321;50.428;8.378;2022-10-31T06:27:41;8.30;99.90
64855;DHT22;51321;50.428;8.378;2022-10-31T06:30:09;8.30;99.90
64855;DHT22;51321;50.428;8.378;2022-10-31T06:32:31;8.50;99.90
64855;DHT22;51321;50.428;8.378;2022-10-31T06:34:53;8.60;99.90
64855;DHT22;51321;50.428;8.378;2022-10-31T06:37:17;8.60;99.90
64855;DHT22;51321;50.428;8.378;2022-10-31T06:39:42;8.60;99.90
64855;DHT22;51321;50.428;8.378;2022-10-31T06:42:06;8.60;99.90
64855;DHT22;51321;50.428;8.378;2022-10-31T06:44:31;8.70;99.90
64855;DHT22;51321;50.428;8.378;2022-10-31T06:46:53;8.70;99.90
64855;DHT22;51321;50.428;8.378;2022-10-31T06:49:27;8.70;99.90
64855;DHT22;51321;50.428;8.378;2022-10-31T06:51:54;9.00;99.90
64855;DHT22;51321;50.428;8.378;2022-10-31T06:54:16;9.10;99.90
64855;DHT22;51321;50.428;8.378;2022-10-31T06:56:39;9.20;99.90
64855;DHT22;51321;50.428;8.378;2022-10-31T06:59:01;9.20;99.90
64855;DHT22;51321;50.428;8.378;2022-10-31T07:01:45;9.20;99.90
64855;DHT22;51321;50.428;8.378;2022-10-31T07:04:10;9.30;99.90
64855;DHT22;51321;50.428;8.378;2022-10-31T07:06:32;9.30;99.90
64855;DHT22;51321;50.428;8.378;2022-10-31T07:08:55;9.40;99.90
64855;DHT22;51321;50.428;8.378;2022-10-31T07:11:17;9.40;99.90
64855;DHT22;51321;50.428;8.378;2022-10-31T07:13:39;9.50;99.90
64855;DHT22;51321;50.428;8.378;2022-10-31T07:16:03;9.50;99.90
64855;DHT22;51321;50.428;8.378;2022-10-31T07:18:30;9.70;99.90
64855;DHT22;51321;50.428;8.378;2022-10-31T07:20:52;9.70;99.90
64855;DHT22;51321;50.428;8.378;2022-10-31T07:23:15;9.70;99.90
64855;DHT22;51321;50.428;8.378;2022-10-31T07:25:43;9.70;99.90
64855;DHT22;51321;50.428;8.378;2022-10-31T07:28:16;9.80;99.90
64855;DHT22;51321;50.428;8.378;2022-10-31T07:30:41;9.80;99.90
64855;DHT22;51321;50.428;8.378;2022-10-31T07:33:04;9.90;99.90
64855;DHT22;51321;50.428;8.378;2022-10-31T07:35:53;10.00;99.90
64855;DHT22;51321;50.428;8.378;2022-10-31T07:38:18;10.00;99.90
64855;DHT22;51321;50.428;8.378;2022-10-31T07:40:41;10.20;99.90
64855;DHT22;51321;50.428;8.378;2022-10-31T07:43:03;10.20;99.90
64855;DHT22;51321;50.428;8.378;2022-10-31T07:45:49;10.30;99.90
64855;DHT22;51321;50.428;8.378;2022-10-31T07:48:50;10.40;99.90
64855;DHT22;51321;50.428;8.378;2022-10-31T07:51:32;10.80;99.90
64855;DHT22;51321;50.428;8.378;2022-10-31T07:54:13;10.90;99.90
64855;DHT22;51321;50.428;8.378;2022-10-31T07:56:35;10.90;99.90
64855;DHT22;51321;50.428;8.378;2022-10-31T07:58:57;11.00;99.90
64855;DHT22;51321;50.428;8.378;2022-10-31T08:01:19;11.10;99.90
64855;DHT22;51321;50.428;8.378;2022-10-31T08:03:59;11.20;99.90
64855;DHT22;51321;50.428;8.378;2022-10-31T08:06:43;11.10;99.90
64855;DHT22;51321;50.428;8.378;2022-10-31T08:09:14;11.20;99.90
64855;DHT22;51321;50.428;8.378;2022-10-31T08:11:38;11.30;99.90
64855;DHT22;51321;50.428;8.378;2022-10-31T08:14:01;11.30;99.90
64855;DHT22;51321;50.428;8.378;2022-10-31T08:16:23;11.30;99.90
64855;DHT22;51321;50.428;8.378;2022-10-31T08:18:50;11.50;99.90
64855;DHT22;51321;50.428;8.378;2022-10-31T08:21:13;11.70;99.90
64855;DHT22;51321;50.428;8.378;2022-10-31T08:23:39;11.90;99.90
64855;DHT22;51321;50.428;8.378;2022-10-31T08:26:02;11.90;99.90
64855;DHT22;51321;50.428;8.378;2022-10-31T08:28:26;12.00;99.90
64855;DHT22;51321;50.428;8.378;2022-10-31T08:30:49;12.10;99.90
64855;DHT22;51321;50.428;8.378;2022-10-31T08:33:30;12.20;99.90
64855;DHT22;51321;50.428;8.378;2022-10-31T08:36:10;12.30;99.90
64855;DHT22;51321;50.428;8.378;2022-10-31T08:38:53;12.50;99.90
64855;DHT22;51321;50.428;8.378;2022-10-31T08:41:15;12.60;99.90
64855;DHT22;51321;50.428;8.378;2022-10-31T08:43:37;12.80;99.90
64855;DHT22;51321;50.428;8.378;2022-10-31T08:45:59;12.90;99.90
64855;DHT22;51321;50.428;8.378;2022-10-31T08:48:23;12.90;99.90
64855;DHT22;51321;50.428;8.378;2022-10-31T08:50:45;13.00;99.90
64855;DHT22;51321;50.428;8.378;2022-10-31T08:53:10;13.10;99.90
64855;DHT22;51321;50.428;8.378;2022-10-31T08:55:36;13.30;99.90
64855;DHT22;51321;50.428;8.378;2022-10-31T08:58:19;13.40;99.90
64855;DHT22;51321;50.428;8.378;2022-10-31T09:00:46;13.50;99.90
64855;DHT22;51321;50.428;8.378;2022-10-31T09:03:16;13.60;99.90
64855;DHT22;51321;50.428;8.378;2022-10-31T09:05:39;13.80;99.90
64855;DHT22;51321;50.428;8.378;2022-10-31T09:08:05;13.80;99.90
64855;DHT22;51321;50.428;8.378;2022-10-31T09:10:28;13.90;99.90
64855;DHT22;51321;50.428;8.378;2022-10-31T09:12:56;13.90;99.90
64855;DHT22;51321;50.428;8.378;2022-10-31T09:15:21;14.00;99.90
64855;DHT22;51321;50.428;8.378;2022-10-31T09:17:50;14.10;99.90
64855;DHT22;51321;50.428;8.378;2022-10-31T09:20:17;14.30;99.90
64855;DHT22;51321;50.428;8.378;2022-10-31T09:22:40;14.30;99.90
64855;DHT22;51321;50.428;8.378;2022-10-31T09:25:02;14.50;99.90
64855;DHT22;51321;50.428;8.378;2022-10-31T09:27:25;14.60;99.90
64855;DHT22;51321;50.428;8.378;2022-10-31T09:29:51;14.80;99.90
64855;DHT22;51321;50.428;8.378;2022-10-31T09:32:13;14.90;99.90
64855;DHT22;51321;50.428;8.378;2022-10-31T09:34:40;15.00;99.90
64855;DHT22;51321;50.428;8.378;2022-10-31T09:37:06;15.10;99.90
64855;DHT22;51321;50.428;8.378;2022-10-31T09:39:29;15.20;99.90
64855;DHT22;51321;50.428;8.378;2022-10-31T09:42:17;15.30;99.90
64855;DHT22;51321;50.428;8.378;2022-10-31T09:44:52;15.40;99.90
64855;DHT22;51321;50.428;8.378;2022-10-31T09:47:33;15.40;99.90
64855;DHT22;51321;50.428;8.378;2022-10-31T09:50:21;15.50;99.90
64855;DHT22;51321;50.428;8.378;2022-10-31T09:52:51;15.50;99.90
64855;DHT22;51321;50.428;8.378;2022-10-31T09:55:19;15.60;99.90
64855;DHT22;51321;50.428;8.378;2022-10-31T09:57:43;15.70;99.90
64855;DHT22;51321;50.428;8.378;2022-10-31T10:00:15;15.70;99.90
64855;DHT22;51321;50.428;8.378;2022-10-31T10:02:43;15.70;99.90
64855;DHT22;51321;50.428;8.378;2022-10-31T10:05:11;15.70;99.90
64855;DHT22;51321;50.428;8.378;2022-10-31T10:07:44;15.80;99.90
64855;DHT22;51321;50.428;8.378;2022-10-31T10:10:36;15.80;99.90
64855;DHT22;51321;50.428;8.378;2022-10-31T10:13:45;15.80;99.90
64855;DHT22;51321;50.428;8.378;2022-10-31T10:16:19;15.90;99.90
64855;DHT22;51321;50.428;8.378;2022-10-31T10:18:52;16.00;99.90
64855;DHT22;51321;50.428;8.378;2022-10-31T10:21:25;16.10;99.90
64855;DHT22;51321;50.428;8.378;2022-10-31T10:23:52;16.30;99.90
64855;DHT22;51321;50.428;8.378;2022-10-31T10:26:18;16.40;99.90
64855;DHT22;51321;50.428;8.378;2022-10-31T10:28:43;16.40;99.90
64855;DHT22;51321;50.428;8.378;2022-10-31T10:31:08;16.50;99.90
64855;DHT22;51321;50.428;8.378;2022-10-31T10:33:38;16.50;99.90
64855;DHT22;51321;50.428;8.378;2022-10-31T10:36:05;16.60;99.90
64855;DHT22;51321;50.428;8.378;2022-10-31T10:38:32;16.60;99.90
64855;DHT22;51321;50.428;8.378;2022-10-31T10:40:55;16.60;99.90
64855;DHT22;51321;50.428;8.378;2022-10-31T10:43:22;16.70;99.90
64855;DHT22;51321;50.428;8.378;2022-10-31T10:45:50;16.80;99.90
64855;DHT22;51321;50.428;8.378;2022-10-31T10:48:52;16.80;99.90
64855;DHT22;51321;50.428;8.378;2022-10-31T10:51:22;16.90;99.90
64855;DHT22;51321;50.428;8.378;2022-10-31T10:53:58;17.00;99.90
64855;DHT22;51321;50.428;8.378;2022-10-31T10:56:31;17.00;99.90
64855;DHT22;51321;50.428;8.378;2022-10-31T10:58:58;17.10;99.90
64855;DHT22;51321;50.428;8.378;2022-10-31T11:01:21;17.10;99.90
64855;DHT22;51321;50.428;8.378;2022-10-31T11:03:45;17.20;99.90
64855;DHT22;51321;50.428;8.378;2022-10-31T11:06:17;17.20;99.90
64855;DHT22;51321;50.428;8.378;2022-10-31T11:08:42;17.20;99.90
64855;DHT22;51321;50.428;8.378;2022-10-31T11:11:10;17.30;99.90
64855;DHT22;51321;50.428;8.378;2022-10-31T11:13:36;17.30;99.90
64855;DHT22;51321;50.428;8.378;2022-10-31T11:16:01;17.30;99.90
64855;DHT22;51321;50.428;8.378;2022-10-31T11:18:26;17.40;99.90
64855;DHT22;51321;50.428;8.378;2022-10-31T11:20:54;17.40;99.90
64855;DHT22;51321;50.428;8.378;2022-10-31T11:23:17;17.50;99.90
64855;DHT22;51321;50.428;8.378;2022-10-31T11:25:48;17.60;99.90
64855;DHT22;51321;50.428;8.378;2022-10-31T11:28:10;17.80;99.90
64855;DHT22;51321;50.428;8.378;2022-10-31T11:30:35;17.90;99.90
64855;DHT22;51321;50.428;8.378;2022-10-31T11:32:58;18.00;99.90
64855;DHT22;51321;50.428;8.378;2022-10-31T11:35:22;18.00;99.90
64855;DHT22;51321;50.428;8.378;2022-10-31T11:37:48;18.10;99.90
64855;DHT22;51321;50.428;8.378;2022-10-31T11:40:17;18.10;99.90
64855;DHT22;51321;50.428;8.378;2022-10-31T11:42:41;18.10;99.90
64855;DHT22;51321;50.428;8.378;2022-10-31T11:45:14;18.10;99.90
64855;DHT22;51321;50.428;8.378;2022-10-31T11:47:37;18.10;99.90
64855;DHT22;51321;50.428;8.378;2022-10-31T11:50:01;18.10;99.90
64855;DHT22;51321;50.428;8.378;2022-10-31T11:52:25;18.00;99.90
64855;DHT22;51321;50.428;8.378;2022-10-31T11:54:54;18.00;99.90
64855;DHT22;51321;50.428;8.378;2022-10-31T11:57:24;18.00;99.90
64855;DHT22;51321;50.428;8.378;2022-10-31T11:59:51;18.00;99.90
64855;DHT22;51321;50.428;8.378;2022-10-31T12:02:18;17.90;99.90
64855;DHT22;51321;50.428;8.378;2022-10-31T12:04:44;17.90;99.90
64855;DHT22;51321;50.428;8.378;2022-10-31T12:07:09;17.90;99.90
64855;DHT22;51321;50.428;8.378;2022-10-31T12:09:34;17.80;99.90
64855;DHT22;51321;50.428;8.378;2022-10-31T12:12:10;17.80;99.90
64855;DHT22;51321;50.428;8.378;2022-10-31T12:14:41;17.80;99.90
64855;DHT22;51321;50.428;8.378;2022-10-31T12:17:13;17.80;99.90
64855;DHT22;51321;50.428;8.378;2022-10-31T12:19:39;17.80;99.90
64855;DHT22;51321;50.428;8.378;2022-10-31T12:22:12;17.80;99.90
64855;DHT22;51321;50.428;8.378;2022-10-31T12:24:53;17.80;99.90
64855;DHT22;51321;50.428;8.378;2022-10-31T12:27:30;17.90;99.90
64855;DHT22;51321;50.428;8.378;2022-10-31T12:30:17;17.90;99.90
64855;DHT22;51321;50.428;8.378;2022-10-31T12:32:52;17.90;99.90
64855;DHT22;51321;50.428;8.378;2022-10-31T12:35:44;17.90;99.90
64855;DHT22;51321;50.428;8.378;2022-10-31T12:38:23;17.90;99.90
64855;DHT22;51321;50.428;8.378;2022-10-31T12:40:59;17.90;99.90
64855;DHT22;51321;50.428;8.378;2022-10-31T12:43:36;18.00;99.90
64855;DHT22;51321;50.428;8.378;2022-10-31T12:46:02;18.00;99.90
64855;DHT22;51321;50.428;8.378;2022-10-31T12:51:24;18.10;99.90
64855;DHT22;51321;50.428;8.378;2022-10-31T12:54:10;18.10;99.90
64855;DHT22;51321;50.428;8.378;2022-10-31T12:56:45;18.10;99.90
64855;DHT22;51321;50.428;8.378;2022-10-31T12:59:19;18.20;99.90
64855;DHT22;51321;50.428;8.378;2022-10-31T13:01:46;18.20;99.90
64855;DHT22;51321;50.428;8.378;2022-10-31T13:04:14;18.40;99.90
64855;DHT22;51321;50.428;8.378;2022-10-31T13:06:42;18.40;99.90
64855;DHT22;51321;50.428;8.378;2022-10-31T13:09:08;18.50;99.90
64855;DHT22;51321;50.428;8.378;2022-10-31T13:11:35;18.50;99.90
64855;DHT22;51321;50.428;8.378;2022-10-31T13:14:04;18.50;99.90
64855;DHT22;51321;50.428;8.378;2022-10-31T13:16:32;18.50;99.90
64855;DHT22;51321;50.428;8.378;2022-10-31T13:18:57;18.50;99.90
64855;DHT22;51321;50.428;8.378;2022-10-31T13:21:25;18.60;99.90
64855;DHT22;51321;50.428;8.378;2022-10-31T13:23:50;18.60;99.90
64855;DHT22;51321;50.428;8.378;2022-10-31T13:26:17;18.60;99.90
64855;DHT22;51321;50.428;8.378;2022-10-31T13:28:45;18.60;99.90
64855;DHT22;51321;50.428;8.378;2022-10-31T13:31:08;18.60;99.90
64855;DHT22;51321;50.428;8.378;2022-10-31T13:33:32;18.50;99.90
64855;DHT22;51321;50.428;8.378;2022-10-31T13:36:09;18.50;99.90
64855;DHT22;51321;50.428;8.378;2022-10-31T13:38:37;18.40;99.90
64855;DHT22;51321;50.428;8.378;2022-10-31T13:41:04;18.20;99.90
64855;DHT22;51321;50.428;8.378;2022-10-31T13:43:32;18.10;99.90
64855;DHT22;51321;50.428;8.378;2022-10-31T13:45:56;18.00;99.90
64855;DHT22;51321;50.428;8.378;2022-10-31T13:48:38;17.90;99.90
64855;DHT22;51321;50.428;8.378;2022-10-31T13:51:04;17.80;99.90
64855;DHT22;51321;50.428;8.378;2022-10-31T13:53:36;17.70;99.90
64855;DHT22;51321;50.428;8.378;2022-10-31T13:56:03;17.60;99.90
64855;DHT22;51321;50.428;8.378;2022-10-31T13:58:28;17.60;99.90
64855;DHT22;51321;50.428;8.378;2022-10-31T14:01:15;17.60;99.90
64855;DHT22;51321;50.428;8.378;2022-10-31T14:03:40;17.60;99.90
64855;DHT22;51321;50.428;8.378;2022-10-31T14:06:03;17.60;99.90
64855;DHT22;51321;50.428;8.378;2022-10-31T14:08:25;17.60;99.90
64855;DHT22;51321;50.428;8.378;2022-10-31T14:10:48;17.50;99.90
64855;DHT22;51321;50.428;8.378;2022-10-31T14:13:15;17.50;99.90
64855;DHT22;51321;50.428;8.378;2022-10-31T14:15:42;17.50;99.90
64855;DHT22;51321;50.428;8.378;2022-10-31T14:18:22;17.40;99.90
64855;DHT22;51321;50.428;8.378;2022-10-31T14:20:46;17.40;99.90
64855;DHT22;51321;50.428;8.378;2022-10-31T14:23:31;17.30;99.90
64855;DHT22;51321;50.428;8.378;2022-10-31T14:26:05;17.20;99.90
64855;DHT22;51321;50.428;8.378;2022-10-31T14:28:32;17.20;99.90
64855;DHT22;51321;50.428;8.378;2022-10-31T14:30:56;17.10;99.90
64855;DHT22;51321;50.428;8.378;2022-10-31T14:33:19;17.00;99.90
64855;DHT22;51321;50.428;8.378;2022-10-31T14:35:51;17.00;99.90
64855;DHT22;51321;50.428;8.378;2022-10-31T14:38:44;16.90;99.90
64855;DHT22;51321;50.428;8.378;2022-10-31T14:41:30;16.80;99.90
64855;DHT22;51321;50.428;8.378;2022-10-31T14:44:36;16.90;99.90
64855;DHT22;51321;50.428;8.378;2022-10-31T14:47:06;16.90;99.90
64855;DHT22;51321;50.428;8.378;2022-10-31T14:49:43;16.80;99.90
64855;DHT22;51321;50.428;8.378;2022-10-31T14:52:13;16.80;99.90
64855;DHT22;51321;50.428;8.378;2022-10-31T14:54:40;16.80;99.90
64855;DHT22;51321;50.428;8.378;2022-10-31T14:57:05;16.70;99.90
64855;DHT22;51321;50.428;8.378;2022-10-31T14:59:31;16.70;99.90
64855;DHT22;51321;50.428;8.378;2022-10-31T15:01:57;16.60;99.90
64855;DHT22;51321;50.428;8.378;2022-10-31T15:04:22;16.60;99.90
64855;DHT22;51321;50.428;8.378;2022-10-31T15:06:47;16.60;99.90
64855;DHT22;51321;50.428;8.378;2022-10-31T15:09:25;16.70;99.90
64855;DHT22;51321;50.428;8.378;2022-10-31T15:11:48;16.60;99.90
64855;DHT22;51321;50.428;8.378;2022-10-31T15:14:22;16.60;99.90
64855;DHT22;51321;50.428;8.378;2022-10-31T15:16:45;16.60;99.90
64855;DHT22;51321;50.428;8.378;2022-10-31T15:19:09;16.60;99.90
64855;DHT22;51321;50.428;8.378;2022-10-31T15:21:33;16.50;99.90
64855;DHT22;51321;50.428;8.378;2022-10-31T15:23:58;16.50;99.90
64855;DHT22;51321;50.428;8.378;2022-10-31T15:26:31;16.60;99.90
64855;DHT22;51321;50.428;8.378;2022-10-31T15:29:00;16.60;99.90
64855;DHT22;51321;50.428;8.378;2022-10-31T15:31:23;16.50;99.90
64855;DHT22;51321;50.428;8.378;2022-10-31T15:33:48;16.30;99.90
64855;DHT22;51321;50.428;8.378;2022-10-31T15:36:18;16.20;99.90
64855;DHT22;51321;50.428;8.378;2022-10-31T15:38:40;16.20;99.90
64855;DHT22;51321;50.428;8.378;2022-10-31T15:41:04;16.10;99.90
64855;DHT22;51321;50.428;8.378;2022-10-31T15:43:32;15.90;99.90
64855;DHT22;51321;50.428;8.378;2022-10-31T15:45:55;15.80;99.90